createdAt,value
2022-12-11T00:03:48.369Z,-0.61
2022-12-11T00:08:52.948Z,-0.69
2022-12-11T00:13:57.116Z,-0.60
2022-12-11T00:18:59.905Z,-0.54
2022-12-11T00:24:02.655Z,-0.73
2022-12-11T00:29:08.219Z,-0.82
2022-12-11T00:34:12.039Z,-0.82
2022-12-11T00:39:14.839Z,-0.71
2022-12-11T00:44:18.961Z,-0.70
2022-12-11T00:49:21.803Z,-0.81
2022-12-11T00:54:24.622Z,-0.79
2022-12-11T00:59:29.156Z,-0.76
2022-12-11T01:04:31.975Z,-0.69
2022-12-11T01:09:52.028Z,-0.60
2022-12-11T01:14:56.095Z,-0.50
2022-12-11T01:19:58.831Z,-0.56
2022-12-11T01:25:01.594Z,-0.52
2022-12-11T01:30:07.429Z,-0.58
2022-12-11T01:35:12.350Z,-0.54
2022-12-11T01:40:16.631Z,-0.57
2022-12-11T01:45:40.008Z,-0.67
2022-12-11T01:50:48.057Z,-0.58
2022-12-11T01:55:54.743Z,-0.51
2022-12-11T02:01:00.098Z,-0.54
2022-12-11T02:06:03.444Z,-0.62
2022-12-11T02:11:12.555Z,-0.65
2022-12-11T02:16:25.378Z,-0.61
2022-12-11T02:21:36.089Z,-0.61
2022-12-11T02:26:58.476Z,-0.62
2022-12-11T02:32:08.904Z,-0.65
2022-12-11T02:37:17.471Z,-0.61
2022-12-11T02:42:21.595Z,-0.71
2022-12-11T02:47:29.271Z,-0.64
2022-12-11T02:52:33.601Z,-0.72
2022-12-11T02:57:41.148Z,-0.73
2022-12-11T03:02:46.556Z,-0.66
2022-12-11T03:07:49.610Z,-0.76
2022-12-11T03:12:56.481Z,-0.57
2022-12-11T03:18:07.590Z,-0.58
2022-12-11T03:23:20.118Z,-0.60
2022-12-11T03:28:30.334Z,-0.61
2022-12-11T03:33:38.691Z,-0.59
2022-12-11T03:38:43.278Z,-0.73
2022-12-11T03:43:46.931Z,-0.66
2022-12-11T03:48:52.852Z,-0.58
2022-12-11T03:53:56.996Z,-0.56
2022-12-11T03:58:59.952Z,-0.67
2022-12-11T04:04:04.610Z,-0.67
2022-12-11T04:09:10.343Z,-0.75
2022-12-11T04:14:33.400Z,-1.03
2022-12-11T04:19:55.263Z,-0.90
2022-12-11T04:24:58.048Z,-0.91
2022-12-11T04:30:01.876Z,-0.96
2022-12-11T04:35:11.155Z,-0.96
2022-12-11T04:40:19.783Z,-0.93
2022-12-11T04:45:22.631Z,-0.83
2022-12-11T04:50:27.067Z,-0.93
2022-12-11T04:55:32.784Z,-0.77
2022-12-11T05:00:35.638Z,-0.74
2022-12-11T05:05:39.975Z,-0.75
2022-12-11T05:10:48.540Z,-0.86
2022-12-11T05:15:52.858Z,-0.79
2022-12-11T05:21:02.239Z,-0.75
2022-12-11T05:26:08.179Z,-0.72
2022-12-11T05:31:17.485Z,-0.84
2022-12-11T05:36:24.870Z,-0.83
2022-12-11T05:41:29.671Z,-0.88
2022-12-11T05:46:32.623Z,-0.67
2022-12-11T05:51:36.789Z,-0.62
2022-12-11T05:56:39.602Z,-0.75
2022-12-11T06:01:46.882Z,-0.87
2022-12-11T06:06:51.351Z,-0.70
2022-12-11T06:11:54.138Z,-0.80
2022-12-11T06:16:56.912Z,-0.94
2022-12-11T06:22:01.020Z,-1.15
2022-12-11T06:27:03.817Z,-1.58
2022-12-11T06:32:06.940Z,-1.59
2022-12-11T06:37:11.772Z,-1.69
2022-12-11T06:42:41.523Z,-1.99
2022-12-11T06:47:44.393Z,-2.07
2022-12-11T06:52:48.705Z,-2.02
2022-12-11T06:57:51.530Z,-1.76
2022-12-11T07:02:54.574Z,-1.79
2022-12-11T07:07:59.155Z,-1.67
2022-12-11T07:13:02.230Z,-1.58
2022-12-11T07:18:08.122Z,-1.84
2022-12-11T07:23:12.545Z,-1.97
2022-12-11T07:28:16.896Z,-2.15
2022-12-11T07:33:19.888Z,-2.13
2022-12-11T07:38:24.857Z,-2.14
2022-12-11T07:43:27.626Z,-2.16
2022-12-11T07:48:34.025Z,-2.07
2022-12-11T07:53:39.820Z,-1.84
2022-12-11T07:58:42.727Z,-2.02
2022-12-11T08:03:46.451Z,-1.70
2022-12-11T08:08:50.650Z,-1.67
2022-12-11T08:13:53.828Z,-1.67
2022-12-11T08:18:57.576Z,-1.49
2022-12-11T08:24:11.159Z,-1.47
2022-12-11T08:29:14.156Z,-1.49
2022-12-11T08:34:17.940Z,-1.45
2022-12-11T08:39:22.517Z,-1.42
2022-12-11T08:44:27.083Z,-1.30
2022-12-11T08:49:34.181Z,-1.29
2022-12-11T08:54:40.231Z,-1.00
2022-12-11T08:59:43.093Z,-1.26
2022-12-11T09:04:45.882Z,-1.23
2022-12-11T09:09:50.077Z,-0.99
2022-12-11T09:14:53.127Z,-1.08
2022-12-11T09:19:55.990Z,-0.80
2022-12-11T09:25:00.210Z,-0.66
2022-12-11T09:30:03.005Z,-0.70
2022-12-11T09:35:06.724Z,-0.68
2022-12-11T09:40:13.306Z,-0.43
2022-12-11T09:45:17.745Z,-0.43
2022-12-11T09:50:24.076Z,-0.86
2022-12-11T09:55:38.276Z,-0.88
2022-12-11T10:00:46.911Z,-1.04
2022-12-11T10:06:01.152Z,-0.97
2022-12-11T10:11:23.906Z,-0.98
2022-12-11T10:16:36.806Z,-0.88
2022-12-11T10:21:42.424Z,-1.34
2022-12-11T10:26:47.759Z,-1.04
2022-12-11T10:31:54.874Z,-0.76
2022-12-11T10:37:00.545Z,-0.69
2022-12-11T10:42:17.434Z,-0.80
2022-12-11T10:47:20.207Z,-0.73
2022-12-11T10:52:25.170Z,-0.85
2022-12-11T10:57:32.128Z,-0.83
2022-12-11T11:02:37.583Z,-0.82
2022-12-11T11:07:40.652Z,-0.73
2022-12-11T11:12:47.658Z,-0.87
2022-12-11T11:17:55.800Z,-0.63
2022-12-11T11:23:02.800Z,-0.81
2022-12-11T11:28:08.812Z,-0.88
2022-12-11T11:33:15.649Z,-0.75
2022-12-11T11:38:24.242Z,-0.77
2022-12-11T11:43:35.352Z,-0.77
2022-12-11T11:48:46.893Z,-0.58
2022-12-11T11:53:51.710Z,-1.00
2022-12-11T11:59:08.440Z,-0.72
2022-12-11T12:04:12.875Z,-0.60
2022-12-11T12:09:29.056Z,-0.63
2022-12-11T12:14:54.518Z,-0.90
2022-12-11T12:20:05.212Z,-0.54
2022-12-11T12:25:28.151Z,-0.63
2022-12-11T12:30:45.696Z,-0.67
2022-12-11T12:36:18.634Z,-0.65
2022-12-11T12:41:45.777Z,-0.47
2022-12-11T12:47:04.792Z,-0.54
2022-12-11T12:52:13.161Z,-0.50
2022-12-11T12:57:18.415Z,-0.49
2022-12-11T13:02:23.882Z,-0.52
2022-12-11T13:07:30.706Z,-0.40
2022-12-11T13:12:47.847Z,-0.23
2022-12-11T13:17:53.055Z,0.02
2022-12-11T13:23:10.219Z,0.27
2022-12-11T13:28:24.911Z,0.35
2022-12-11T13:33:31.133Z,0.48
2022-12-11T13:38:37.400Z,0.63
2022-12-11T13:43:42.892Z,0.85
2022-12-11T13:48:49.876Z,0.71
2022-12-11T13:54:04.926Z,0.47
2022-12-11T13:59:22.141Z,0.52
2022-12-11T14:04:39.143Z,0.33
2022-12-11T14:09:45.418Z,0.57
2022-12-11T14:14:52.867Z,0.22
2022-12-11T14:20:02.217Z,0.15
2022-12-11T14:25:21.685Z,-0.10
2022-12-11T14:30:27.251Z,-0.14
2022-12-11T14:35:38.875Z,-0.66
2022-12-11T14:40:48.022Z,-0.89
2022-12-11T14:45:55.777Z,-0.92
2022-12-11T14:51:06.112Z,-1.00
2022-12-11T14:56:16.973Z,-1.00
2022-12-11T15:01:25.031Z,-1.04
2022-12-11T15:06:30.728Z,-1.04
2022-12-11T15:11:33.867Z,-0.84
2022-12-11T15:16:41.672Z,-0.56
2022-12-11T15:21:46.053Z,-0.40
2022-12-11T15:26:49.675Z,-0.24
2022-12-11T15:32:01.454Z,-0.27
2022-12-11T15:37:05.578Z,-0.62
2022-12-11T15:42:08.352Z,-0.70
2022-12-11T15:47:15.379Z,-0.89
2022-12-11T15:52:19.485Z,-0.85
2022-12-11T15:57:24.969Z,-0.91
2022-12-11T16:02:28.050Z,-0.91
2022-12-11T16:07:33.286Z,-1.01
2022-12-11T16:12:36.062Z,-0.98
2022-12-11T16:17:38.900Z,-0.95
2022-12-11T16:22:43.111Z,-0.83
2022-12-11T16:27:46.260Z,-0.92
2022-12-11T16:32:49.120Z,-0.93
2022-12-11T16:37:54.738Z,-0.87
2022-12-11T16:42:58.526Z,-0.76
2022-12-11T16:48:03.916Z,-0.75
2022-12-11T16:53:08.018Z,-0.87
2022-12-11T16:58:15.874Z,-0.72
2022-12-11T17:03:19.419Z,-0.79
2022-12-11T17:08:24.278Z,-0.75
2022-12-11T17:13:29.566Z,-0.70
2022-12-11T17:18:37.230Z,-0.83
2022-12-11T17:23:41.579Z,-0.72
2022-12-11T17:28:45.947Z,-0.66
2022-12-11T17:33:49.626Z,-0.60
2022-12-11T17:38:54.920Z,-0.45
2022-12-11T17:43:57.763Z,-0.20
2022-12-11T17:49:02.774Z,-0.49
2022-12-11T17:54:06.978Z,-0.34
2022-12-11T17:59:09.822Z,-0.52
2022-12-11T18:04:12.797Z,-0.50
2022-12-11T18:09:17.031Z,-0.74
2022-12-11T18:14:19.824Z,-0.47
2022-12-11T18:19:23.276Z,-0.32
2022-12-11T18:24:31.699Z,-0.54
2022-12-11T18:29:35.688Z,-0.91
2022-12-11T18:34:38.445Z,-0.87
2022-12-11T18:39:43.028Z,-0.78
2022-12-11T18:44:46.458Z,-0.63
2022-12-11T18:49:49.337Z,-0.70
2022-12-11T18:54:53.722Z,-0.65
2022-12-11T18:59:56.574Z,-0.31
2022-12-11T19:04:59.725Z,-0.26
2022-12-11T19:10:04.059Z,-0.46
2022-12-11T19:15:07.895Z,-0.62
2022-12-11T19:20:40.391Z,-0.58
2022-12-11T19:25:43.244Z,-0.40
2022-12-11T19:30:47.455Z,-0.29
2022-12-11T19:35:50.375Z,-0.58
2022-12-11T19:40:54.797Z,-0.40
2022-12-11T19:45:57.635Z,-0.46
2022-12-11T19:51:05.357Z,-0.36
2022-12-11T19:56:29.362Z,-0.39
2022-12-11T20:07:30.650Z,-0.23
2022-12-11T20:12:45.483Z,-0.52
2022-12-11T20:17:57.918Z,-0.45
2022-12-11T20:23:02.935Z,-0.35
2022-12-11T20:34:47.846Z,-0.31
2022-12-11T20:39:54.072Z,-0.21
2022-12-11T20:44:59.861Z,-0.34
2022-12-11T20:50:24.003Z,-0.07
2022-12-11T20:55:26.970Z,0.20
2022-12-11T21:00:41.893Z,-0.36
2022-12-11T21:05:48.029Z,-0.61
2022-12-11T21:10:53.673Z,-0.08
2022-12-11T21:16:06.370Z,0.09
2022-12-11T21:21:21.133Z,-0.31
2022-12-11T21:26:24.182Z,-0.37
2022-12-11T21:31:30.993Z,-0.33
2022-12-11T21:36:34.017Z,-0.35
2022-12-11T21:41:52.997Z,-0.38
2022-12-11T21:52:27.341Z,-0.35
2022-12-11T21:57:34.300Z,-0.38
2022-12-11T22:02:41.344Z,-0.46
2022-12-11T22:07:44.438Z,-0.43
2022-12-11T22:12:47.257Z,-0.54
2022-12-11T22:17:52.837Z,-0.41
2022-12-11T22:22:58.828Z,-0.40
2022-12-11T22:28:02.187Z,-0.29
2022-12-11T22:33:06.511Z,0.07
2022-12-11T22:38:09.349Z,0.06
2022-12-11T22:43:13.058Z,-0.60
2022-12-11T22:48:17.301Z,-0.78
2022-12-11T22:53:20.309Z,-0.90
2022-12-11T22:58:23.111Z,-0.66
2022-12-11T23:03:27.417Z,-0.63
2022-12-11T23:08:30.337Z,-0.68
2022-12-11T23:13:33.173Z,-0.91
2022-12-11T23:18:37.378Z,-0.88
2022-12-11T23:23:40.821Z,-0.71
2022-12-11T23:28:43.668Z,-0.76
2022-12-11T23:33:47.941Z,-0.73
2022-12-11T23:38:54.561Z,-0.91
2022-12-11T23:43:57.964Z,-0.92
2022-12-11T23:49:02.063Z,-0.98
2022-12-11T23:54:04.908Z,-1.07
2022-12-11T23:59:07.710Z,-0.79
